sensor_id;sensor_type;location;lat;lon;timestamp;P1;durP1;ratioP1;P2;durP2;ratioP2
54935;SDS011;40838;50.676;7.838;2022-08-21T00:02:21;10.95;;;5.78;;
54935;SDS011;40838;50.676;7.838;2022-08-21T00:04:49;12.98;;;6.63;;
54935;SDS011;40838;50.676;7.838;2022-08-21T00:07:16;10.15;;;5.63;;
54935;SDS011;40838;50.676;7.838;2022-08-21T00:09:44;9.45;;;6.40;;
54935;SDS011;40838;50.676;7.838;2022-08-21T00:12:12;11.75;;;5.85;;
54935;SDS011;40838;50.676;7.838;2022-08-21T00:14:38;11.15;;;6.30;;
54935;SDS011;40838;50.676;7.838;2022-08-21T00:17:05;12.02;;;5.50;;
54935;SDS011;40838;50.676;7.838;2022-08-21T00:19:34;12.90;;;5.90;;
54935;SDS011;40838;50.676;7.838;2022-08-21T00:22:00;18.00;;;6.32;;
54935;SDS011;40838;50.676;7.838;2022-08-21T00:24:27;17.52;;;8.02;;
54935;SDS011;40838;50.676;7.838;2022-08-21T00:26:55;13.80;;;6.75;;
54935;SDS011;40838;50.676;7.838;2022-08-21T00:29:28;13.65;;;6.82;;
54935;SDS011;40838;50.676;7.838;2022-08-21T00:31:55;16.33;;;7.60;;
54935;SDS011;40838;50.676;7.838;2022-08-21T00:34:22;12.05;;;6.47;;
54935;SDS011;40838;50.676;7.838;2022-08-21T00:36:48;13.40;;;7.30;;
54935;SDS011;40838;50.676;7.838;2022-08-21T00:39:15;11.73;;;6.35;;
54935;SDS011;40838;50.676;7.838;2022-08-21T00:41:42;15.45;;;6.50;;
54935;SDS011;40838;50.676;7.838;2022-08-21T00:44:09;13.45;;;6.90;;
54935;SDS011;40838;50.676;7.838;2022-08-21T00:46:38;14.15;;;8.07;;
54935;SDS011;40838;50.676;7.838;2022-08-21T00:49:05;17.58;;;7.53;;
54935;SDS011;40838;50.676;7.838;2022-08-21T00:51:35;16.10;;;7.07;;
54935;SDS011;40838;50.676;7.838;2022-08-21T00:54:02;9.55;;;6.72;;
54935;SDS011;40838;50.676;7.838;2022-08-21T00:56:34;14.63;;;7.65;;
54935;SDS011;40838;50.676;7.838;2022-08-21T00:59:02;18.70;;;8.27;;
54935;SDS011;40838;50.676;7.838;2022-08-21T01:01:30;15.45;;;7.40;;
54935;SDS011;40838;50.676;7.838;2022-08-21T01:03:58;11.88;;;6.95;;
54935;SDS011;40838;50.676;7.838;2022-08-21T01:06:25;12.60;;;6.57;;
54935;SDS011;40838;50.676;7.838;2022-08-21T01:08:52;12.48;;;6.97;;
54935;SDS011;40838;50.676;7.838;2022-08-21T01:11:18;14.68;;;7.00;;
54935;SDS011;40838;50.676;7.838;2022-08-21T01:13:49;12.52;;;6.95;;
54935;SDS011;40838;50.676;7.838;2022-08-21T01:16:20;14.90;;;7.00;;
54935;SDS011;40838;50.676;7.838;2022-08-21T01:18:59;11.75;;;6.90;;
54935;SDS011;40838;50.676;7.838;2022-08-21T01:21:27;15.18;;;8.02;;
54935;SDS011;40838;50.676;7.838;2022-08-21T01:23:59;13.57;;;7.70;;
54935;SDS011;40838;50.676;7.838;2022-08-21T01:26:28;12.88;;;7.30;;
54935;SDS011;40838;50.676;7.838;2022-08-21T01:28:57;15.02;;;7.53;;
54935;SDS011;40838;50.676;7.838;2022-08-21T01:31:25;10.93;;;7.05;;
54935;SDS011;40838;50.676;7.838;2022-08-21T01:33:53;13.30;;;6.90;;
54935;SDS011;40838;50.676;7.838;2022-08-21T01:36:19;14.13;;;7.07;;
54935;SDS011;40838;50.676;7.838;2022-08-21T01:38:50;15.38;;;8.98;;
54935;SDS011;40838;50.676;7.838;2022-08-21T01:41:25;15.18;;;8.38;;
54935;SDS011;40838;50.676;7.838;2022-08-21T01:44:02;15.95;;;8.43;;
54935;SDS011;40838;50.676;7.838;2022-08-21T01:46:29;11.70;;;7.03;;
54935;SDS011;40838;50.676;7.838;2022-08-21T01:48:55;13.18;;;8.45;;
54935;SDS011;40838;50.676;7.838;2022-08-21T01:51:22;15.98;;;8.27;;
54935;SDS011;40838;50.676;7.838;2022-08-21T01:53:50;13.70;;;8.15;;
54935;SDS011;40838;50.676;7.838;2022-08-21T01:56:18;13.30;;;7.55;;
54935;SDS011;40838;50.676;7.838;2022-08-21T01:58:46;15.48;;;8.65;;
54935;SDS011;40838;50.676;7.838;2022-08-21T02:01:13;16.90;;;7.80;;
54935;SDS011;40838;50.676;7.838;2022-08-21T02:03:40;16.67;;;8.98;;
54935;SDS011;40838;50.676;7.838;2022-08-21T02:06:07;19.38;;;8.85;;
54935;SDS011;40838;50.676;7.838;2022-08-21T02:08:48;15.68;;;7.68;;
54935;SDS011;40838;50.676;7.838;2022-08-21T02:11:17;17.00;;;7.78;;
54935;SDS011;40838;50.676;7.838;2022-08-21T02:13:43;13.13;;;7.47;;
54935;SDS011;40838;50.676;7.838;2022-08-21T02:16:10;16.60;;;8.50;;
54935;SDS011;40838;50.676;7.838;2022-08-21T02:18:37;13.68;;;7.95;;
54935;SDS011;40838;50.676;7.838;2022-08-21T02:21:04;16.60;;;8.00;;
54935;SDS011;40838;50.676;7.838;2022-08-21T02:23:32;14.27;;;8.50;;
54935;SDS011;40838;50.676;7.838;2022-08-21T02:26:04;16.70;;;8.40;;
54935;SDS011;40838;50.676;7.838;2022-08-21T02:28:35;14.93;;;8.15;;
54935;SDS011;40838;50.676;7.838;2022-08-21T02:31:02;15.10;;;8.77;;
54935;SDS011;40838;50.676;7.838;2022-08-21T02:33:30;18.88;;;9.55;;
54935;SDS011;40838;50.676;7.838;2022-08-21T02:35:57;12.57;;;8.60;;
54935;SDS011;40838;50.676;7.838;2022-08-21T02:38:24;16.75;;;9.05;;
54935;SDS011;40838;50.676;7.838;2022-08-21T02:40:52;15.57;;;8.75;;
54935;SDS011;40838;50.676;7.838;2022-08-21T02:43:19;17.10;;;8.40;;
54935;SDS011;40838;50.676;7.838;2022-08-21T02:45:51;21.40;;;8.88;;
54935;SDS011;40838;50.676;7.838;2022-08-21T02:48:20;16.83;;;9.30;;
54935;SDS011;40838;50.676;7.838;2022-08-21T02:50:48;16.92;;;9.73;;
54935;SDS011;40838;50.676;7.838;2022-08-21T02:53:15;16.48;;;9.50;;
54935;SDS011;40838;50.676;7.838;2022-08-21T02:55:44;18.55;;;9.70;;
54935;SDS011;40838;50.676;7.838;2022-08-21T02:58:12;17.77;;;9.68;;
54935;SDS011;40838;50.676;7.838;2022-08-21T03:00:40;16.27;;;9.38;;
54935;SDS011;40838;50.676;7.838;2022-08-21T03:03:08;17.23;;;9.68;;
54935;SDS011;40838;50.676;7.838;2022-08-21T03:05:37;19.40;;;10.18;;
54935;SDS011;40838;50.676;7.838;2022-08-21T03:08:05;22.27;;;9.20;;
54935;SDS011;40838;50.676;7.838;2022-08-21T03:10:35;23.92;;;10.00;;
54935;SDS011;40838;50.676;7.838;2022-08-21T03:13:02;18.33;;;9.77;;
54935;SDS011;40838;50.676;7.838;2022-08-21T03:15:30;17.27;;;9.07;;
54935;SDS011;40838;50.676;7.838;2022-08-21T03:17:56;14.80;;;9.13;;
54935;SDS011;40838;50.676;7.838;2022-08-21T03:20:26;16.90;;;9.63;;
54935;SDS011;40838;50.676;7.838;2022-08-21T03:22:53;19.92;;;9.38;;
54935;SDS011;40838;50.676;7.838;2022-08-21T03:25:20;18.70;;;10.30;;
54935;SDS011;40838;50.676;7.838;2022-08-21T03:27:47;20.00;;;9.55;;
54935;SDS011;40838;50.676;7.838;2022-08-21T03:30:15;21.17;;;11.23;;
54935;SDS011;40838;50.676;7.838;2022-08-21T03:32:43;18.52;;;9.98;;
54935;SDS011;40838;50.676;7.838;2022-08-21T03:35:11;16.65;;;10.60;;
54935;SDS011;40838;50.676;7.838;2022-08-21T03:37:39;15.45;;;9.68;;
54935;SDS011;40838;50.676;7.838;2022-08-21T03:40:07;20.42;;;10.35;;
54935;SDS011;40838;50.676;7.838;2022-08-21T03:42:34;15.73;;;9.50;;
54935;SDS011;40838;50.676;7.838;2022-08-21T03:45:11;18.13;;;10.73;;
54935;SDS011;40838;50.676;7.838;2022-08-21T03:47:38;17.88;;;10.38;;
54935;SDS011;40838;50.676;7.838;2022-08-21T03:50:05;22.05;;;11.00;;
54935;SDS011;40838;50.676;7.838;2022-08-21T03:52:35;23.48;;;10.70;;
54935;SDS011;40838;50.676;7.838;2022-08-21T03:55:04;27.02;;;10.77;;
54935;SDS011;40838;50.676;7.838;2022-08-21T03:57:31;23.02;;;12.55;;
54935;SDS011;40838;50.676;7.838;2022-08-21T03:59:58;20.48;;;9.90;;
54935;SDS011;40838;50.676;7.838;2022-08-21T04:02:27;16.75;;;10.38;;
54935;SDS011;40838;50.676;7.838;2022-08-21T04:04:59;21.17;;;11.40;;
54935;SDS011;40838;50.676;7.838;2022-08-21T04:07:25;22.05;;;11.50;;
54935;SDS011;40838;50.676;7.838;2022-08-21T04:09:53;25.70;;;12.15;;
54935;SDS011;40838;50.676;7.838;2022-08-21T04:12:23;23.58;;;12.90;;
54935;SDS011;40838;50.676;7.838;2022-08-21T04:14:50;22.17;;;12.55;;
54935;SDS011;40838;50.676;7.838;2022-08-21T04:17:17;21.80;;;11.65;;
54935;SDS011;40838;50.676;7.838;2022-08-21T04:19:43;21.45;;;10.88;;
54935;SDS011;40838;50.676;7.838;2022-08-21T04:22:11;23.27;;;12.13;;
54935;SDS011;40838;50.676;7.838;2022-08-21T04:24:37;19.73;;;11.43;;
54935;SDS011;40838;50.676;7.838;2022-08-21T04:27:18;28.92;;;12.68;;
54935;SDS011;40838;50.676;7.838;2022-08-21T04:29:46;24.58;;;12.25;;
54935;SDS011;40838;50.676;7.838;2022-08-21T04:32:12;26.83;;;12.15;;
54935;SDS011;40838;50.676;7.838;2022-08-21T04:34:39;19.05;;;12.30;;
54935;SDS011;40838;50.676;7.838;2022-08-21T04:37:05;22.10;;;11.38;;
54935;SDS011;40838;50.676;7.838;2022-08-21T04:39:32;22.30;;;11.52;;
54935;SDS011;40838;50.676;7.838;2022-08-21T04:41:58;17.80;;;11.13;;
54935;SDS011;40838;50.676;7.838;2022-08-21T04:44:25;23.17;;;11.70;;
54935;SDS011;40838;50.676;7.838;2022-08-21T04:46:53;21.13;;;11.55;;
54935;SDS011;40838;50.676;7.838;2022-08-21T04:49:20;22.67;;;11.63;;
54935;SDS011;40838;50.676;7.838;2022-08-21T04:51:46;22.38;;;11.48;;
54935;SDS011;40838;50.676;7.838;2022-08-21T04:54:14;19.83;;;11.70;;
54935;SDS011;40838;50.676;7.838;2022-08-21T04:56:45;20.38;;;11.93;;
54935;SDS011;40838;50.676;7.838;2022-08-21T04:59:23;21.75;;;10.93;;
54935;SDS011;40838;50.676;7.838;2022-08-21T05:01:51;22.35;;;10.93;;
54935;SDS011;40838;50.676;7.838;2022-08-21T05:04:21;21.90;;;11.48;;
54935;SDS011;40838;50.676;7.838;2022-08-21T05:06:59;22.63;;;10.02;;
54935;SDS011;40838;50.676;7.838;2022-08-21T05:09:27;22.77;;;10.93;;
54935;SDS011;40838;50.676;7.838;2022-08-21T05:11:55;21.25;;;10.80;;
54935;SDS011;40838;50.676;7.838;2022-08-21T05:14:23;16.27;;;9.95;;
54935;SDS011;40838;50.676;7.838;2022-08-21T05:16:50;16.92;;;9.77;;
54935;SDS011;40838;50.676;7.838;2022-08-21T05:19:16;17.00;;;10.70;;
54935;SDS011;40838;50.676;7.838;2022-08-21T05:21:46;18.95;;;11.20;;
54935;SDS011;40838;50.676;7.838;2022-08-21T05:24:13;16.55;;;9.55;;
54935;SDS011;40838;50.676;7.838;2022-08-21T05:26:41;18.77;;;10.85;;
54935;SDS011;40838;50.676;7.838;2022-08-21T05:29:07;20.25;;;11.18;;
54935;SDS011;40838;50.676;7.838;2022-08-21T05:31:34;14.68;;;9.07;;
54935;SDS011;40838;50.676;7.838;2022-08-21T05:34:00;18.15;;;9.70;;
54935;SDS011;40838;50.676;7.838;2022-08-21T05:36:27;20.80;;;10.15;;
54935;SDS011;40838;50.676;7.838;2022-08-21T05:38:56;20.52;;;11.75;;
54935;SDS011;40838;50.676;7.838;2022-08-21T05:41:23;18.35;;;9.93;;
54935;SDS011;40838;50.676;7.838;2022-08-21T05:43:49;16.63;;;9.15;;
54935;SDS011;40838;50.676;7.838;2022-08-21T05:46:16;19.60;;;10.15;;
54935;SDS011;40838;50.676;7.838;2022-08-21T05:48:42;13.68;;;8.90;;
54935;SDS011;40838;50.676;7.838;2022-08-21T05:51:10;15.20;;;8.73;;
54935;SDS011;40838;50.676;7.838;2022-08-21T05:53:50;17.33;;;8.02;;
54935;SDS011;40838;50.676;7.838;2022-08-21T05:56:20;14.32;;;7.43;;
54935;SDS011;40838;50.676;7.838;2022-08-21T05:58:46;9.65;;;5.68;;
54935;SDS011;40838;50.676;7.838;2022-08-21T06:01:16;11.35;;;5.75;;
54935;SDS011;40838;50.676;7.838;2022-08-21T06:03:44;9.07;;;5.63;;
54935;SDS011;40838;50.676;7.838;2022-08-21T06:06:10;8.55;;;5.50;;
54935;SDS011;40838;50.676;7.838;2022-08-21T06:08:37;7.10;;;5.38;;
54935;SDS011;40838;50.676;7.838;2022-08-21T06:11:05;13.98;;;5.53;;
54935;SDS011;40838;50.676;7.838;2022-08-21T06:13:36;7.97;;;5.45;;
54935;SDS011;40838;50.676;7.838;2022-08-21T06:16:06;6.75;;;4.78;;
54935;SDS011;40838;50.676;7.838;2022-08-21T06:18:33;7.93;;;4.75;;
54935;SDS011;40838;50.676;7.838;2022-08-21T06:21:00;14.23;;;5.38;;
54935;SDS011;40838;50.676;7.838;2022-08-21T06:23:31;10.68;;;5.32;;
54935;SDS011;40838;50.676;7.838;2022-08-21T06:26:00;9.25;;;5.13;;
54935;SDS011;40838;50.676;7.838;2022-08-21T06:28:27;10.73;;;5.50;;
54935;SDS011;40838;50.676;7.838;2022-08-21T06:30:55;8.43;;;4.82;;
54935;SDS011;40838;50.676;7.838;2022-08-21T06:33:21;13.20;;;5.30;;
54935;SDS011;40838;50.676;7.838;2022-08-21T06:35:48;9.30;;;5.30;;
54935;SDS011;40838;50.676;7.838;2022-08-21T06:38:15;6.38;;;4.70;;
54935;SDS011;40838;50.676;7.838;2022-08-21T06:40:42;9.35;;;5.45;;
54935;SDS011;40838;50.676;7.838;2022-08-21T06:43:09;8.52;;;5.22;;
54935;SDS011;40838;50.676;7.838;2022-08-21T06:45:36;8.40;;;4.85;;
54935;SDS011;40838;50.676;7.838;2022-08-21T06:48:14;10.05;;;5.20;;
54935;SDS011;40838;50.676;7.838;2022-08-21T06:50:41;7.95;;;4.70;;
54935;SDS011;40838;50.676;7.838;2022-08-21T06:53:09;14.65;;;6.70;;
54935;SDS011;40838;50.676;7.838;2022-08-21T06:55:36;10.27;;;5.35;;
54935;SDS011;40838;50.676;7.838;2022-08-21T06:58:03;10.18;;;5.15;;
54935;SDS011;40838;50.676;7.838;2022-08-21T07:00:32;8.20;;;4.93;;
54935;SDS011;40838;50.676;7.838;2022-08-21T07:02:58;11.57;;;4.82;;
54935;SDS011;40838;50.676;7.838;2022-08-21T07:05:27;11.38;;;6.00;;
54935;SDS011;40838;50.676;7.838;2022-08-21T07:07:53;10.30;;;5.18;;
54935;SDS011;40838;50.676;7.838;2022-08-21T07:10:20;11.05;;;5.93;;
54935;SDS011;40838;50.676;7.838;2022-08-21T07:12:46;21.00;;;6.90;;
54935;SDS011;40838;50.676;7.838;2022-08-21T07:15:13;16.35;;;6.82;;
54935;SDS011;40838;50.676;7.838;2022-08-21T07:17:39;15.23;;;6.85;;
54935;SDS011;40838;50.676;7.838;2022-08-21T07:20:06;13.45;;;6.78;;
54935;SDS011;40838;50.676;7.838;2022-08-21T07:22:35;10.98;;;6.75;;
54935;SDS011;40838;50.676;7.838;2022-08-21T07:25:02;18.70;;;7.38;;
54935;SDS011;40838;50.676;7.838;2022-08-21T07:27:33;15.73;;;7.00;;
54935;SDS011;40838;50.676;7.838;2022-08-21T07:29:59;17.83;;;8.23;;
54935;SDS011;40838;50.676;7.838;2022-08-21T07:32:26;19.23;;;9.82;;
54935;SDS011;40838;50.676;7.838;2022-08-21T07:34:52;16.20;;;8.38;;
54935;SDS011;40838;50.676;7.838;2022-08-21T07:37:19;19.17;;;11.00;;
54935;SDS011;40838;50.676;7.838;2022-08-21T07:39:47;17.27;;;10.63;;
54935;SDS011;40838;50.676;7.838;2022-08-21T07:42:16;15.45;;;10.23;;
54935;SDS011;40838;50.676;7.838;2022-08-21T07:44:43;17.92;;;10.85;;
54935;SDS011;40838;50.676;7.838;2022-08-21T07:47:24;23.27;;;10.88;;
54935;SDS011;40838;50.676;7.838;2022-08-21T07:49:53;23.45;;;11.77;;
54935;SDS011;40838;50.676;7.838;2022-08-21T07:52:25;21.73;;;10.38;;
54935;SDS011;40838;50.676;7.838;2022-08-21T07:54:54;22.10;;;10.40;;
54935;SDS011;40838;50.676;7.838;2022-08-21T07:57:25;18.90;;;9.90;;
54935;SDS011;40838;50.676;7.838;2022-08-21T07:59:52;15.45;;;8.13;;
54935;SDS011;40838;50.676;7.838;2022-08-21T08:02:21;19.20;;;8.00;;
54935;SDS011;40838;50.676;7.838;2022-08-21T08:04:48;19.50;;;7.97;;
54935;SDS011;40838;50.676;7.838;2022-08-21T08:07:15;14.98;;;7.75;;
54935;SDS011;40838;50.676;7.838;2022-08-21T08:09:43;16.02;;;8.27;;
54935;SDS011;40838;50.676;7.838;2022-08-21T08:12:17;16.88;;;8.00;;
54935;SDS011;40838;50.676;7.838;2022-08-21T08:14:46;16.65;;;8.27;;
54935;SDS011;40838;50.676;7.838;2022-08-21T08:17:12;17.15;;;8.05;;
54935;SDS011;40838;50.676;7.838;2022-08-21T08:19:46;13.18;;;6.30;;
54935;SDS011;40838;50.676;7.838;2022-08-21T08:22:23;15.57;;;6.15;;
54935;SDS011;40838;50.676;7.838;2022-08-21T08:24:50;10.35;;;5.05;;
54935;SDS011;40838;50.676;7.838;2022-08-21T08:27:21;12.05;;;4.55;;
54935;SDS011;40838;50.676;7.838;2022-08-21T08:29:48;13.73;;;4.68;;
54935;SDS011;40838;50.676;7.838;2022-08-21T08:32:16;10.18;;;4.13;;
54935;SDS011;40838;50.676;7.838;2022-08-21T08:34:45;18.45;;;5.13;;
54935;SDS011;40838;50.676;7.838;2022-08-21T08:37:20;11.23;;;4.05;;
54935;SDS011;40838;50.676;7.838;2022-08-21T08:39:48;10.98;;;3.67;;
54935;SDS011;40838;50.676;7.838;2022-08-21T08:42:20;9.43;;;4.20;;
54935;SDS011;40838;50.676;7.838;2022-08-21T08:44:55;12.20;;;4.88;;
54935;SDS011;40838;50.676;7.838;2022-08-21T08:47:26;10.10;;;4.55;;
54935;SDS011;40838;50.676;7.838;2022-08-21T08:50:04;10.10;;;3.17;;
54935;SDS011;40838;50.676;7.838;2022-08-21T08:52:41;7.93;;;4.43;;
54935;SDS011;40838;50.676;7.838;2022-08-21T08:55:18;11.27;;;4.03;;
54935;SDS011;40838;50.676;7.838;2022-08-21T08:57:49;13.73;;;4.25;;
54935;SDS011;40838;50.676;7.838;2022-08-21T09:00:37;11.68;;;3.33;;
54935;SDS011;40838;50.676;7.838;2022-08-21T09:03:22;9.90;;;3.42;;
54935;SDS011;40838;50.676;7.838;2022-08-21T09:05:50;15.32;;;4.38;;
54935;SDS011;40838;50.676;7.838;2022-08-21T09:08:22;9.52;;;3.35;;
54935;SDS011;40838;50.676;7.838;2022-08-21T09:10:55;7.35;;;2.88;;
54935;SDS011;40838;50.676;7.838;2022-08-21T09:13:24;11.48;;;3.45;;
54935;SDS011;40838;50.676;7.838;2022-08-21T09:15:57;9.88;;;2.35;;
54935;SDS011;40838;50.676;7.838;2022-08-21T09:18:30;11.18;;;2.90;;
54935;SDS011;40838;50.676;7.838;2022-08-21T09:21:18;12.63;;;2.53;;
54935;SDS011;40838;50.676;7.838;2022-08-21T09:24:13;6.03;;;2.50;;
54935;SDS011;40838;50.676;7.838;2022-08-21T09:26:54;6.38;;;2.45;;
54935;SDS011;40838;50.676;7.838;2022-08-21T09:29:33;8.35;;;2.20;;
54935;SDS011;40838;50.676;7.838;2022-08-21T09:38:37;8.30;;;2.53;;
54935;SDS011;40838;50.676;7.838;2022-08-21T09:41:08;8.68;;;2.20;;
54935;SDS011;40838;50.676;7.838;2022-08-21T09:43:55;7.97;;;2.60;;
54935;SDS011;40838;50.676;7.838;2022-08-21T09:46:25;6.18;;;2.15;;
54935;SDS011;40838;50.676;7.838;2022-08-21T09:48:53;11.00;;;2.00;;
54935;SDS011;40838;50.676;7.838;2022-08-21T09:51:21;6.82;;;2.00;;
54935;SDS011;40838;50.676;7.838;2022-08-21T09:53:52;8.15;;;2.42;;
54935;SDS011;40838;50.676;7.838;2022-08-21T09:56:21;8.15;;;2.63;;
54935;SDS011;40838;50.676;7.838;2022-08-21T09:59:17;8.40;;;2.13;;
54935;SDS011;40838;50.676;7.838;2022-08-21T10:01:48;13.60;;;2.25;;
54935;SDS011;40838;50.676;7.838;2022-08-21T10:04:15;8.18;;;2.38;;
54935;SDS011;40838;50.676;7.838;2022-08-21T10:06:46;7.18;;;1.80;;
54935;SDS011;40838;50.676;7.838;2022-08-21T10:09:15;8.02;;;1.98;;
54935;SDS011;40838;50.676;7.838;2022-08-21T10:11:43;4.13;;;1.65;;
54935;SDS011;40838;50.676;7.838;2022-08-21T10:16:59;4.80;;;1.90;;
54935;SDS011;40838;50.676;7.838;2022-08-21T10:22:38;4.32;;;1.33;;
54935;SDS011;40838;50.676;7.838;2022-08-21T10:25:12;4.32;;;1.52;;
54935;SDS011;40838;50.676;7.838;2022-08-21T10:27:42;4.35;;;1.77;;
54935;SDS011;40838;50.676;7.838;2022-08-21T10:30:12;4.10;;;1.63;;
54935;SDS011;40838;50.676;7.838;2022-08-21T10:35:22;7.25;;;2.13;;
54935;SDS011;40838;50.676;7.838;2022-08-21T10:37:57;5.82;;;1.50;;
54935;SDS011;40838;50.676;7.838;2022-08-21T10:40:30;6.38;;;1.83;;
54935;SDS011;40838;50.676;7.838;2022-08-21T10:43:04;4.47;;;1.58;;
54935;SDS011;40838;50.676;7.838;2022-08-21T10:45:45;7.70;;;1.70;;
54935;SDS011;40838;50.676;7.838;2022-08-21T10:48:19;5.82;;;1.92;;
54935;SDS011;40838;50.676;7.838;2022-08-21T10:50:50;4.43;;;1.90;;
54935;SDS011;40838;50.676;7.838;2022-08-21T10:53:29;4.40;;;1.83;;
54935;SDS011;40838;50.676;7.838;2022-08-21T10:56:01;7.70;;;2.03;;
54935;SDS011;40838;50.676;7.838;2022-08-21T10:58:45;5.20;;;1.75;;
54935;SDS011;40838;50.676;7.838;2022-08-21T11:01:13;5.50;;;1.73;;
54935;SDS011;40838;50.676;7.838;2022-08-21T11:03:45;6.43;;;2.22;;
54935;SDS011;40838;50.676;7.838;2022-08-21T11:06:14;4.78;;;1.73;;
54935;SDS011;40838;50.676;7.838;2022-08-21T11:08:44;5.18;;;2.22;;
54935;SDS011;40838;50.676;7.838;2022-08-21T11:11:15;6.75;;;2.15;;
54935;SDS011;40838;50.676;7.838;2022-08-21T11:13:45;9.27;;;2.13;;
54935;SDS011;40838;50.676;7.838;2022-08-21T11:16:16;6.70;;;1.92;;
54935;SDS011;40838;50.676;7.838;2022-08-21T11:18:46;7.20;;;2.03;;
54935;SDS011;40838;50.676;7.838;2022-08-21T11:21:20;7.97;;;1.95;;
54935;SDS011;40838;50.676;7.838;2022-08-21T11:23:52;13.90;;;1.60;;
54935;SDS011;40838;50.676;7.838;2022-08-21T11:26:29;5.38;;;1.60;;
54935;SDS011;40838;50.676;7.838;2022-08-21T11:28:59;3.83;;;1.55;;
54935;SDS011;40838;50.676;7.838;2022-08-21T11:31:32;7.05;;;2.58;;
54935;SDS011;40838;50.676;7.838;2022-08-21T11:34:08;5.88;;;1.95;;
54935;SDS011;40838;50.676;7.838;2022-08-21T11:36:42;4.63;;;1.70;;
54935;SDS011;40838;50.676;7.838;2022-08-21T11:39:16;3.72;;;1.52;;
54935;SDS011;40838;50.676;7.838;2022-08-21T11:41:52;3.65;;;1.45;;
54935;SDS011;40838;50.676;7.838;2022-08-21T11:44:24;2.83;;;1.40;;
54935;SDS011;40838;50.676;7.838;2022-08-21T11:46:57;5.55;;;1.50;;
54935;SDS011;40838;50.676;7.838;2022-08-21T11:49:42;5.78;;;1.33;;
54935;SDS011;40838;50.676;7.838;2022-08-21T11:52:11;5.88;;;1.60;;
54935;SDS011;40838;50.676;7.838;2022-08-21T11:54:42;4.35;;;1.52;;
54935;SDS011;40838;50.676;7.838;2022-08-21T11:59:53;4.05;;;1.80;;
54935;SDS011;40838;50.676;7.838;2022-08-21T12:02:24;4.40;;;1.40;;
54935;SDS011;40838;50.676;7.838;2022-08-21T12:04:58;4.47;;;1.70;;
54935;SDS011;40838;50.676;7.838;2022-08-21T12:07:32;3.85;;;1.85;;
54935;SDS011;40838;50.676;7.838;2022-08-21T12:09:59;3.10;;;1.30;;
54935;SDS011;40838;50.676;7.838;2022-08-21T12:12:27;4.30;;;1.33;;
54935;SDS011;40838;50.676;7.838;2022-08-21T12:15:25;4.28;;;1.67;;
54935;SDS011;40838;50.676;7.838;2022-08-21T12:17:57;2.67;;;1.15;;
54935;SDS011;40838;50.676;7.838;2022-08-21T12:20:36;3.70;;;1.77;;
54935;SDS011;40838;50.676;7.838;2022-08-21T12:23:04;1.42;;;0.93;;
54935;SDS011;40838;50.676;7.838;2022-08-21T12:25:36;2.20;;;1.10;;
54935;SDS011;40838;50.676;7.838;2022-08-21T12:28:06;4.18;;;1.65;;
54935;SDS011;40838;50.676;7.838;2022-08-21T12:30:35;5.30;;;1.30;;
54935;SDS011;40838;50.676;7.838;2022-08-21T12:33:04;2.83;;;1.30;;
54935;SDS011;40838;50.676;7.838;2022-08-21T12:35:33;2.28;;;1.30;;
54935;SDS011;40838;50.676;7.838;2022-08-21T12:38:05;5.22;;;1.33;;
54935;SDS011;40838;50.676;7.838;2022-08-21T12:40:37;3.35;;;1.13;;
54935;SDS011;40838;50.676;7.838;2022-08-21T12:43:05;1.42;;;1.10;;
54935;SDS011;40838;50.676;7.838;2022-08-21T12:48:22;2.42;;;1.23;;
54935;SDS011;40838;50.676;7.838;2022-08-21T12:50:54;2.92;;;1.23;;
54935;SDS011;40838;50.676;7.838;2022-08-21T12:53:35;3.13;;;1.40;;
54935;SDS011;40838;50.676;7.838;2022-08-21T12:56:08;6.65;;;1.52;;
54935;SDS011;40838;50.676;7.838;2022-08-21T12:58:35;4.35;;;1.38;;
54935;SDS011;40838;50.676;7.838;2022-08-21T13:01:03;6.68;;;1.70;;
54935;SDS011;40838;50.676;7.838;2022-08-21T13:03:33;3.63;;;1.40;;
54935;SDS011;40838;50.676;7.838;2022-08-21T13:06:04;4.15;;;1.33;;
54935;SDS011;40838;50.676;7.838;2022-08-21T13:08:41;3.72;;;1.20;;
54935;SDS011;40838;50.676;7.838;2022-08-21T13:11:09;3.38;;;1.10;;
54935;SDS011;40838;50.676;7.838;2022-08-21T13:13:36;3.15;;;1.27;;
54935;SDS011;40838;50.676;7.838;2022-08-21T13:16:03;3.28;;;1.38;;
54935;SDS011;40838;50.676;7.838;2022-08-21T13:18:31;1.85;;;0.80;;
54935;SDS011;40838;50.676;7.838;2022-08-21T13:21:06;4.55;;;1.15;;
54935;SDS011;40838;50.676;7.838;2022-08-21T13:23:33;3.65;;;1.40;;
54935;SDS011;40838;50.676;7.838;2022-08-21T13:26:02;2.00;;;0.98;;
54935;SDS011;40838;50.676;7.838;2022-08-21T13:28:37;3.85;;;1.52;;
54935;SDS011;40838;50.676;7.838;2022-08-21T13:31:06;5.43;;;1.40;;
54935;SDS011;40838;50.676;7.838;2022-08-21T13:33:33;5.35;;;1.48;;
54935;SDS011;40838;50.676;7.838;2022-08-21T13:36:09;2.03;;;1.17;;
54935;SDS011;40838;50.676;7.838;2022-08-21T13:38:38;4.88;;;1.58;;
54935;SDS011;40838;50.676;7.838;2022-08-21T13:41:05;4.78;;;1.70;;
54935;SDS011;40838;50.676;7.838;2022-08-21T13:43:36;2.20;;;0.98;;
54935;SDS011;40838;50.676;7.838;2022-08-21T13:46:06;9.77;;;1.60;;
54935;SDS011;40838;50.676;7.838;2022-08-21T13:48:34;4.43;;;1.40;;
54935;SDS011;40838;50.676;7.838;2022-08-21T13:51:02;2.03;;;1.10;;
54935;SDS011;40838;50.676;7.838;2022-08-21T13:53:31;2.22;;;1.08;;
54935;SDS011;40838;50.676;7.838;2022-08-21T13:56:03;4.40;;;1.27;;
54935;SDS011;40838;50.676;7.838;2022-08-21T13:58:30;2.13;;;0.93;;
54935;SDS011;40838;50.676;7.838;2022-08-21T14:00:59;1.98;;;1.20;;
54935;SDS011;40838;50.676;7.838;2022-08-21T14:03:29;2.38;;;1.08;;
54935;SDS011;40838;50.676;7.838;2022-08-21T14:08:38;2.85;;;0.98;;
54935;SDS011;40838;50.676;7.838;2022-08-21T14:11:09;4.22;;;1.40;;
54935;SDS011;40838;50.676;7.838;2022-08-21T14:13:37;3.65;;;1.50;;
54935;SDS011;40838;50.676;7.838;2022-08-21T14:16:12;4.05;;;1.30;;
54935;SDS011;40838;50.676;7.838;2022-08-21T14:18:54;3.15;;;1.52;;
54935;SDS011;40838;50.676;7.838;2022-08-21T14:21:34;4.05;;;1.13;;
54935;SDS011;40838;50.676;7.838;2022-08-21T14:24:10;4.47;;;1.50;;
54935;SDS011;40838;50.676;7.838;2022-08-21T14:26:43;2.17;;;0.98;;
54935;SDS011;40838;50.676;7.838;2022-08-21T14:29:12;2.03;;;0.85;;
54935;SDS011;40838;50.676;7.838;2022-08-21T14:31:40;2.20;;;0.95;;
54935;SDS011;40838;50.676;7.838;2022-08-21T14:34:08;3.35;;;1.10;;
54935;SDS011;40838;50.676;7.838;2022-08-21T14:36:36;2.30;;;0.98;;
54935;SDS011;40838;50.676;7.838;2022-08-21T14:39:03;4.95;;;1.02;;
54935;SDS011;40838;50.676;7.838;2022-08-21T14:41:34;2.40;;;1.15;;
54935;SDS011;40838;50.676;7.838;2022-08-21T14:44:01;2.17;;;0.88;;
54935;SDS011;40838;50.676;7.838;2022-08-21T14:46:29;5.07;;;1.70;;
54935;SDS011;40838;50.676;7.838;2022-08-21T14:48:58;2.72;;;0.98;;
54935;SDS011;40838;50.676;7.838;2022-08-21T14:51:25;2.83;;;1.00;;
54935;SDS011;40838;50.676;7.838;2022-08-21T14:53:54;2.60;;;1.10;;
54935;SDS011;40838;50.676;7.838;2022-08-21T14:56:21;5.45;;;0.98;;
54935;SDS011;40838;50.676;7.838;2022-08-21T14:58:49;2.17;;;1.10;;
54935;SDS011;40838;50.676;7.838;2022-08-21T15:01:17;3.13;;;1.10;;
54935;SDS011;40838;50.676;7.838;2022-08-21T15:03:58;4.57;;;1.00;;
54935;SDS011;40838;50.676;7.838;2022-08-21T15:06:25;3.72;;;1.60;;
54935;SDS011;40838;50.676;7.838;2022-08-21T15:08:51;5.38;;;1.00;;
54935;SDS011;40838;50.676;7.838;2022-08-21T15:11:20;7.95;;;1.77;;
54935;SDS011;40838;50.676;7.838;2022-08-21T15:13:47;4.63;;;1.55;;
54935;SDS011;40838;50.676;7.838;2022-08-21T15:16:24;2.55;;;1.20;;
54935;SDS011;40838;50.676;7.838;2022-08-21T15:18:50;3.40;;;1.10;;